Data for 03/12/2009

Time Sea-Level Adjusted Pressure Absolute Pressure Temperature Relative Humidity Dew Point   
(mb) (inHg) (mb) (inHg) (C) (F) (%) (C) (F)
00:05 1023 30.21 852 25.16 -11.8 10.8 77 -15 5
00:10 1023 30.21 852 25.16 -11.8 10.7 77 -15.2 4.7
00:15 1023 30.21 852 25.16 -12.3 9.9 79 -15.2 4.6
00:20 1023 30.21 852 25.16 -12.4 9.8 79 -15.3 4.5
00:25 1023 30.21 852 25.16 -12.3 9.9 79 -15.2 4.6
00:30 1023 30.21 852 25.16 -12.2 10 79 -15.2 4.6
00:35 1023 30.21 852 25.16 -12 10.4 78 -15.1 4.9
00:40 1023 30.21 852 25.16 -12.1 10.3 78 -15.2 4.7
00:45 1023 30.21 852 25.16 -12.2 10.1 78 -15.2 4.7
00:50 1023 30.21 852 25.16 -11.9 10.6 77 -15.1 4.8
00:55 1023 30.21 852 25.16 -11.8 10.8 77 -15 5.1
01:00 1023 30.21 852 25.16 -11.6 11.2 76 -15 5
01:05 1023 30.21 852 25.16 -11.4 11.4 75 -15.1 4.9
01:10 1023 30.21 852 25.16 -11.4 11.5 76 -14.9 5.2
01:15 1023 30.21 852 25.16 -11.9 10.6 77 -15.2 4.6
01:20 1023 30.21 852 25.16 -12.4 9.8 77 -15.5 4
01:25 1023 30.21 852 25.16 -12.3 10 78 -15.3 4.5
01:30 1023 30.21 852 25.16 -12.7 9.1 78 -15.7 3.7
01:35 1023 30.21 852 25.16 -13.1 8.3 81 -15.8 3.6
01:40 1023 30.21 852 25.16 -12.9 8.7 79 -15.8 3.6
01:45 1023 30.21 852 25.16 -13.3 8.2 81 -15.9 3.3
01:50 1023 30.21 852 25.16 -13 8.6 79 -15.9 3.4
01:55 1023 30.21 852 25.16 -12.9 8.7 78 -16 3.2
02:00 1023 30.21 852 25.16 -12.9 8.8 78 -15.9 3.3
02:05 1023 30.21 852 25.16 -12.8 9 78 -15.9 3.4
02:10 1023 30.21 852 25.16 -12.7 9.1 78 -15.7 3.7
02:15 1023 30.21 852 25.16 -12.3 9.8 77 -15.6 4
02:20 1023 30.21 852 25.16 -12.2 10 77 -15.5 4.2
02:25 1023 30.21 852 25.16 -12 10.4 78 -15.1 4.8
02:30 1023 30.21 852 25.16 -12 10.4 77 -15.3 4.5
02:35 1023 30.21 852 25.16 -12.3 9.9 77 -15.5 4.1
02:40 1023 30.21 852 25.16 -12.7 9.1 78 -15.8 3.6
02:45 1023 30.21 852 25.16 -12.6 9.2 79 -15.5 4
02:50 1023 30.21 852 25.16 -12.5 9.5 78 -15.6 4
02:55 1023 30.21 852 25.16 -12.9 8.8 79 -15.8 3.5
03:00 1023 30.21 852 25.16 -12.9 8.8 79 -15.9 3.4
03:05 1023 30.21 852 25.16 -12.6 9.3 78 -15.7 3.8
03:10 1023 30.21 852 25.16 -12.4 9.6 77 -15.7 3.8
03:15 1023 30.21 852 25.16 -12.5 9.4 78 -15.6 3.9
03:20 1023 30.21 852 25.16 -12.4 9.7 78 -15.6 4
03:25 1023 30.21 852 25.16 -12.5 9.6 78 -15.6 3.9
03:30 1023 30.21 852 25.16 -12.9 8.8 80 -15.7 3.7
03:35 1023 30.21 852 25.16 -13.2 8.3 79 -16.1 2.9
03:40 1023 30.21 852 25.16 -13.2 8.3 79 -16.1 2.9
03:45 1023 30.21 852 25.16 -13.1 8.4 80 -16 3.3
03:50 1023 30.21 852 25.16 -13 8.7 78 -16 3.2
03:55 1023 30.21 852 25.16 -12.7 9.1 78 -15.9 3.5
04:00 1023 30.21 852 25.16 -12.7 9.2 78 -15.8 3.6
04:05 1023 30.21 852 25.16 -12.7 9.1 78 -15.7 3.7
04:10 1023 30.21 852 25.16 -12.6 9.4 78 -15.7 3.8
04:15 1023 30.21 852 25.16 -12.4 9.6 78 -15.5 4
04:20 1023 30.21 852 25.16 -12.2 10 77 -15.4 4.2
04:25 1023 30.21 852 25.16 -12.2 10.1 78 -15.3 4.4
04:30 1023 30.21 852 25.16 -11.8 10.9 76 -15.1 4.8
04:35 1023 30.21 852 25.16 -11.2 11.8 75 -14.8 5.3
04:40 1023 30.21 852 25.16 -11.6 11.2 74 -15.4 4.4
04:45 1023 30.21 852 25.16 -11.6 11.1 73 -15.5 4.1
04:50 1023 30.21 852 25.16 -12.1 10.2 75 -15.8 3.6
04:55 1023 30.21 852 25.16 -12.4 9.7 75 -16 3.2
05:00 1023 30.21 852 25.16 -12.7 9.1 75 -16.3 2.7
05:05 1023 30.21 852 25.16 -13.2 8.2 77 -16.4 2.4
05:10 1023 30.21 852 25.16 -13.2 8.3 77 -16.4 2.4
05:15 1023 30.21 852 25.16 -13.2 8.2 76 -16.5 2.3
05:20 1023 30.21 852 25.16 -13.4 7.9 78 -16.5 2.3
05:25 1023 30.21 852 25.16 -13 8.5 74 -16.8 1.8
05:30 1023 30.21 852 25.16 -12.7 9.2 73 -16.5 2.3
05:35 1023 30.21 852 25.16 -12.9 8.8 75 -16.5 2.3
05:40 1023 30.21 852 25.16 -13.2 8.3 77 -16.4 2.5
05:45 1023 30.21 852 25.16 -13.2 8.2 77 -16.5 2.3
05:50 1023 30.21 852 25.16 -13.4 7.9 77 -16.6 2.1
05:55 1023 30.21 852 25.16 -13.4 7.9 77 -16.6 2
06:00 1023 30.21 852 25.16 -13.4 7.9 75 -16.8 1.7
06:05 1023 30.21 852 25.16 -13.6 7.6 76 -16.9 1.5
06:10 1023 30.21 852 25.16 -13.4 8 77 -16.6 2
06:15 1023 30.21 852 25.16 -13.2 8.3 76 -16.6 2.1
06:20 1023 30.21 852 25.16 -13.1 8.4 74 -16.8 1.8
06:25 1023 30.21 852 25.16 -13.3 8.1 75 -16.9 1.6
06:30 1023 30.21 852 25.16 -13.5 7.6 76 -16.9 1.6
06:35 1023 30.21 852 25.16 -13.6 7.6 77 -16.9 1.7
06:40 1023 30.21 852 25.16 -13.5 7.6 76 -16.9 1.5
06:45 1023 30.21 852 25.16 -13.4 7.8 76 -16.9 1.6
06:50 1023 30.21 852 25.16 -13.3 8.1 75 -16.8 1.8
06:55 1023 30.21 852 25.16 -13.3 8 77 -16.6 2.2
07:00 1023 30.21 852 25.16 -13.2 8.2 77 -16.5 2.3
07:05 1023 30.21 852 25.16 -13.1 8.5 77 -16.3 2.7
07:10 1023 30.21 852 25.16 -13 8.6 77 -16.3 2.7
07:15 1023 30.21 852 25.16 -12.9 8.8 75 -16.5 2.4
07:20 1023 30.21 852 25.16 -12.6 9.4 73 -16.4 2.5
07:25 1023 30.21 852 25.16 -12.5 9.6 73 -16.4 2.6
07:30 1023 30.21 852 25.16 -12.6 9.3 73 -16.5 2.3
07:35 1023 30.21 852 25.16 -12.7 9.1 73 -16.6 2.1
07:40 1023 30.21 853 25.19 -12.9 8.7 73 -16.8 1.8
07:45 1023 30.21 853 25.19 -13.1 8.5 74 -16.8 1.8
07:50 1023 30.21 853 25.19 -13 8.6 73 -16.9 1.7
07:55 1023 30.21 853 25.19 -13 8.6 74 -16.7 1.9
08:00 1023 30.21 853 25.19 -12.7 9.2 72 -16.7 1.9
08:05 1024 30.24 853 25.19 -12.3 9.9 70 -16.7 2
08:10 1024 30.24 853 25.19 -12 10.4 69 -16.6 2.2
08:15 1024 30.24 853 25.19 -11.9 10.6 68 -16.6 2.1
08:20 1024 30.24 853 25.19 -11.7 11 66 -16.7 1.9
08:25 1024 30.24 853 25.19 -11.6 11.1 66 -16.7 1.9
08:30 1024 30.24 853 25.19 -11.6 11.2 66 -16.7 1.9
08:35 1024 30.24 853 25.19 -11.2 11.8 64 -16.7 1.9
08:40 1024 30.24 853 25.19 -10.7 12.7 63 -16.5 2.4
08:45 1024 30.24 853 25.19 -10.4 13.2 64 -16 3.1
08:50 1024 30.24 853 25.19 -10.4 13.2 64 -15.9 3.3
08:55 1024 30.24 853 25.19 -10.5 13.2 65 -15.8 3.6
09:00 1024 30.24 853 25.19 -10.6 13 66 -15.8 3.5
09:05 1024 30.24 853 25.19 -10.6 12.9 65 -16 3.2
09:10 1024 30.24 853 25.19 -10.5 13 64 -16.1 3
09:15 1024 30.24 853 25.19 -10 13.9 63 -15.8 3.5
09:20 1024 30.24 853 25.19 -9.8 14.5 62 -15.8 3.6
09:25 1024 30.24 853 25.19 -9.5 14.9 61 -15.7 3.7
09:30 1024 30.24 853 25.19 -8.8 16.1 58 -15.7 3.7
09:35 1024 30.24 853 25.19 -8.5 16.8 58 -15.4 4.3
09:40 1024 30.24 853 25.19 -8.1 17.5 57 -15.2 4.6
09:45 1024 30.24 853 25.19 -8.2 17.3 58 -15.1 4.9
09:50 1024 30.24 853 25.19 -8.5 16.8 57 -15.6 3.9
09:55 1024 30.24 853 25.19 -8.5 16.7 58 -15.4 4.3
10:00 1024 30.24 853 25.19 -8.3 17.1 56 -15.6 3.9
10:05 1024 30.24 853 25.19 -7.4 18.7 52 -15.7 3.7
10:10 1024 30.24 853 25.19 -6.5 20.3 51 -15 4.9
10:15 1024 30.24 853 25.19 -6.4 20.4 53 -14.5 5.8
10:20 1024 30.24 853 25.19 -6.7 20 53 -14.7 5.5
10:25 1024 30.24 853 25.19 -5.9 21.4 47 -15.3 4.4
10:30 1024 30.24 853 25.19 -5.6 21.9 49 -14.7 5.5
10:35 1024 30.24 853 25.19 -5.9 21.4 49 -14.9 5.2
10:40 1024 30.24 853 25.19 -6.1 21 50 -14.9 5.1
10:45 1024 30.24 853 25.19 -5.9 21.4 48 -15.2 4.7
10:50 1024 30.24 853 25.19 -5.6 22 46 -15.3 4.4
10:55 1024 30.24 853 25.19 -5 23 46 -14.9 5.2
11:00 1024 30.24 853 25.19 -5.4 22.3 49 -14.4 6.1
11:05 1024 30.24 853 25.19 -5.1 22.7 47 -14.9 5.2
11:10 1024 30.24 853 25.19 -4.7 23.5 45 -15 5
11:15 1024 30.24 853 25.19 -4.3 24.3 45 -14.7 5.6
11:20 1024 30.24 853 25.19 -3.9 24.9 44 -14.5 5.9
11:25 1024 30.24 853 25.19 -4 24.7 44 -14.6 5.7
11:30 1024 30.24 853 25.19 -4.1 24.5 44 -14.7 5.5
11:35 1024 30.24 853 25.19 -4 24.8 43 -14.9 5.2
11:40 1024 30.24 853 25.19 -4.1 24.7 43 -14.8 5.3
11:45 1024 30.24 853 25.19 -4.2 24.5 46 -14.2 6.5
11:50 1024 30.24 853 25.19 -4.6 23.6 45 -14.7 5.5
11:55 1024 30.24 853 25.19 -5.3 22.4 48 -14.7 5.6
12:00 1024 30.24 853 25.19 -5.2 22.6 48 -14.5 5.9
12:05 1024 30.24 853 25.19 -5.2 22.6 48 -14.6 5.7
12:10 1024 30.24 853 25.19 -5.4 22.2 48 -14.8 5.4
12:15 1024 30.24 853 25.19 -5.4 22.3 48 -14.8 5.3
12:20 1024 30.24 853 25.19 -5 23 50 -13.9 6.9
12:25 1024 30.24 853 25.19 -4.6 23.8 49 -13.8 7.1
12:30 1024 30.24 853 25.19 -3.8 25.2 44 -14.3 6.3
12:35 1024 30.24 853 25.19 -3 26.6 43 -13.9 7
12:40 1024 30.24 853 25.19 -2.8 26.9 41 -14.3 6.2
12:45 1024 30.24 853 25.19 -3.1 26.4 45 -13.6 7.5
12:50 1024 30.24 853 25.19 -2.5 27.5 40 -14.2 6.4
12:55 1024 30.24 853 25.19 -2.5 27.4 42 -13.8 7.1
13:00 1024 30.24 853 25.19 -2.1 28.2 40 -13.9 7
13:05 1024 30.24 853 25.19 -2.7 27.1 41 -14.2 6.4
13:10 1024 30.24 853 25.19 -2.6 27.2 42 -14 6.8
13:15 1024 30.24 853 25.19 -2.3 27.9 42 -13.4 7.8
13:20 1024 30.24 853 25.19 -2 28.4 42 -13.2 8.3
13:25 1024 30.24 853 25.19 -1.7 28.9 41 -13.4 7.9
13:30 1024 30.24 853 25.19 -1.8 28.7 42 -13.2 8.2
13:35 1024 30.24 853 25.19 -2.4 27.7 45 -12.8 9
13:40 1023 30.21 853 25.19 -2.6 27.3 45 -13.1 8.4
13:45 1023 30.21 853 25.19 -2.3 27.9 45 -12.7 9.2
13:50 1023 30.21 853 25.19 -2 28.5 46 -12 10.3
13:55 1023 30.21 853 25.19 -1.8 28.8 42 -13 8.5
14:00 1023 30.21 853 25.19 -1.9 28.6 44 -12.7 9.1
14:05 1023 30.21 853 25.19 -1.6 29.1 43 -12.5 9.5
14:10 1023 30.21 853 25.19 -1.6 29.2 42 -13 8.7
14:15 1023 30.21 853 25.19 -1.2 29.9 40 -13.1 8.5
14:20 1023 30.21 852 25.16 -0.5 31.1 40 -12.6 9.3
14:25 1023 30.21 852 25.16 -0.4 31.3 42 -11.9 10.6
14:30 1023 30.21 852 25.16 -1.3 29.7 42 -12.6 9.3
14:35 1023 30.21 852 25.16 -1.4 29.4 41 -12.9 8.7
14:40 1023 30.21 852 25.16 -1.9 28.6 45 -12.3 9.9
14:45 1023 30.21 852 25.16 -1.3 29.7 44 -12 10.4
14:50 1023 30.21 852 25.16 -0.3 31.5 43 -11.5 11.2
14:55 1023 30.21 852 25.16 -0.3 31.4 41 -12.2 10.1
15:00 1023 30.21 852 25.16 -0.7 30.8 42 -12 10.5
15:05 1023 30.21 852 25.16 -0.1 31.7 39 -12.4 9.7
15:10 1023 30.21 852 25.16 0 32.1 43 -11 12.2
15:15 1023 30.21 852 25.16 -0.3 31.5 43 -11.5 11.3
15:20 1023 30.21 852 25.16 -1.3 29.7 46 -11.6 11.2
15:25 1023 30.21 852 25.16 -1.8 28.8 45 -12.3 9.9
15:30 1023 30.21 852 25.16 -1.6 29.1 44 -12.2 10
15:35 1023 30.21 852 25.16 -1.1 30 43 -12 10.3
15:40 1023 30.21 852 25.16 -0.6 30.9 42 -12.1 10.1
15:45 1023 30.21 852 25.16 -1.2 29.9 44 -11.9 10.5
15:50 1023 30.21 852 25.16 -0.8 30.5 43 -12.1 10.3
15:55 1023 30.21 852 25.16 -0.5 31.2 40 -12.4 9.6
16:00 1023 30.21 852 25.16 -0.2 31.7 39 -12.5 9.5
16:05 1023 30.21 852 25.16 0.7 33.2 37 -12.6 9.4
16:10 1023 30.21 852 25.16 1 33.7 38 -12 10.4
16:15 1023 30.21 852 25.16 1.2 34.2 35 -12.6 9.3
16:20 1023 30.21 852 25.16 1.4 34.5 34 -12.8 8.9
16:25 1023 30.21 852 25.16 1.5 34.7 36 -12.1 10.2
16:30 1023 30.21 852 25.16 1.5 34.7 35 -12.4 9.7
16:35 1023 30.21 852 25.16 1.1 33.9 39 -11.5 11.3
16:40 1023 30.21 852 25.16 1.2 34.1 37 -11.8 10.7
16:45 1023 30.21 852 25.16 1.6 35 35 -12.4 9.7
16:50 1023 30.21 852 25.16 1.8 35.2 33 -12.8 8.9
16:55 1023 30.21 852 25.16 2 35.6 32 -12.9 8.8
17:00 1023 30.21 852 25.16 2 35.5 33 -12.7 9.1
17:05 1023 30.21 852 25.16 1.9 35.5 33 -12.8 8.9
17:10 1023 30.21 852 25.16 1.8 35.2 34 -12.6 9.4
17:15 1023 30.21 852 25.16 2.2 36 31 -13.3 8
17:20 1023 30.21 852 25.16 2.8 37 30 -13.1 8.4
17:25 1023 30.21 852 25.16 3 37.5 27 -14.3 6.3
17:30 1023 30.21 852 25.16 2.6 36.7 27 -14.6 5.8
17:35 1023 30.21 852 25.16 2.4 36.3 26 -15.4 4.4
17:40 1023 30.21 852 25.16 3 37.4 22 -16.7 1.9
17:45 1023 30.21 852 25.16 2.9 37.2 30 -12.9 8.7
17:50 1023 30.21 852 25.16 2.4 36.3 32 -12.8 8.9
17:55 1023 30.21 852 25.16 2 35.6 31 -13.3 8
18:00 1023 30.21 852 25.16 1.2 34.2 32 -13.6 7.5
18:05 1023 30.21 852 25.16 1.5 34.7 30 -14.3 6.2
18:10 1023 30.21 852 25.16 2 35.7 29 -14.3 6.3
18:15 1023 30.21 852 25.16 2.3 36.2 28 -14.5 5.9
18:20 1023 30.21 852 25.16 2.8 37.1 26 -14.9 5.2
18:25 1023 30.21 852 25.16 2.3 36.1 25 -15.9 3.4
18:30 1023 30.21 852 25.16 1.6 34.8 25 -16.5 2.2
18:35 1023 30.21 852 25.16 1.3 34.3 25 -16.8 1.7
18:40 1023 30.21 852 25.16 1.4 34.6 26 -16.3 2.6
18:45 1023 30.21 852 25.16 1.5 34.6 25 -16.6 2.2
18:50 1023 30.21 852 25.16 1.6 34.9 25 -16.3 2.6
18:55 1023 30.21 852 25.16 1.4 34.5 27 -15.9 3.5
19:00 1023 30.21 852 25.16 1.1 34 29 -14.9 5.1
19:05 1023 30.21 852 25.16 0.7 33.3 33 -14 6.9
19:10 1023 30.21 852 25.16 -0.3 31.4 32 -15.1 4.8
19:15 1023 30.21 852 25.16 -0.9 30.3 32 -15.7 3.7
19:20 1023 30.21 852 25.16 -1.2 29.8 33 -15.4 4.3
19:25 1023 30.21 852 25.16 -1.3 29.6 36 -14.7 5.5
19:30 1023 30.21 852 25.16 -1.5 29.2 34 -15.6 3.9
19:35 1023 30.21 852 25.16 -1.8 28.7 37 -14.8 5.4
19:40 1023 30.21 852 25.16 -1.7 28.9 39 -14.1 6.7
19:45 1023 30.21 852 25.16 -1.8 28.7 44 -12.6 9.4
19:50 1023 30.21 852 25.16 -2.1 28.3 45 -12.4 9.7
19:55 1023 30.21 852 25.16 -2.3 27.9 46 -12.3 9.8
20:00 1023 30.21 852 25.16 -2.4 27.7 46 -12.4 9.7
20:05 1023 30.21 852 25.16 -2.3 27.8 46 -12.4 9.6
20:10 1023 30.21 852 25.16 -2.4 27.7 46 -12.6 9.3
20:15 1023 30.21 852 25.16 -2.2 28 43 -13.2 8.2
20:20 1023 30.21 852 25.16 -2 28.4 48 -11.6 11
20:25 1023 30.21 852 25.16 -2.7 27.2 49 -12 10.4
20:30 1023 30.21 852 25.16 -2.6 27.3 48 -12.2 10
20:35 1023 30.21 852 25.16 -2.6 27.4 48 -12.1 10.2
20:40 1023 30.21 852 25.16 -2.8 27 51 -11.6 11.1
20:45 1023 30.21 852 25.16 -2.8 27 51 -11.6 11.1
20:50 1023 30.21 852 25.16 -2.9 26.8 52 -11.4 11.6
20:55 1023 30.21 852 25.16 -3.1 26.5 54 -11.1 12.1
21:00 1023 30.21 852 25.16 -3.2 26.3 54 -11.2 11.8
21:05 1023 30.21 852 25.16 -3.3 26 55 -11.2 11.9
21:10 1023 30.21 852 25.16 -3.4 25.8 56 -11 12.3
21:15 1023 30.21 852 25.16 -3.4 25.9 55 -11.2 11.9
21:20 1023 30.21 852 25.16 -3.4 25.9 53 -11.8 10.8
21:25 1023 30.21 852 25.16 -3.3 26 53 -11.7 11
21:30 1023 30.21 852 25.16 -3.4 25.8 55 -11.2 11.8
21:35 1023 30.21 852 25.16 -3.6 25.5 56 -11.3 11.7
21:40 1023 30.21 852 25.16 -3.7 25.3 54 -11.7 11
21:45 1023 30.21 852 25.16 -3.9 25 56 -11.3 11.6
21:50 1023 30.21 852 25.16 -4.1 24.6 55 -11.8 10.7
21:55 1023 30.21 852 25.16 -3.9 25.1 55 -11.7 10.9
22:00 1023 30.21 852 25.16 -3.7 25.4 53 -11.9 10.6
22:05 1023 30.21 852 25.16 -3.7 25.4 49 -12.9 8.8
22:10 1023 30.21 852 25.16 -3.3 26.1 48 -12.8 9
22:15 1023 30.21 852 25.16 -3.4 26 49 -12.6 9.4
22:20 1023 30.21 852 25.16 -3.5 25.8 49 -12.8 8.9
22:25 1023 30.21 853 25.19 -3.7 25.3 51 -12.5 9.6
22:30 1023 30.21 853 25.19 -3.9 25 47 -13.6 7.6
22:35 1023 30.21 853 25.19 -3.5 25.6 46 -13.4 7.8
22:40 1023 30.21 853 25.19 -3.3 26 46 -13.4 7.9
22:45 1023 30.21 853 25.19 -3.4 25.9 49 -12.7 9.2
22:50 1023 30.21 853 25.19 -4.5 23.8 52 -12.9 8.8
22:55 1023 30.21 853 25.19 -5.9 21.3 56 -13.4 7.9
23:00 1023 30.21 853 25.19 -6.2 20.8 50 -15.1 4.8
23:05 1023 30.21 853 25.19 -5 23.1 52 -13.4 7.9
23:10 1023 30.21 853 25.19 -4.3 24.2 47 -14.1 6.6
23:15 1023 30.21 853 25.19 -3.7 25.4 50 -12.6 9.3
23:20 1023 30.21 853 25.19 -4 24.8 53 -12.3 9.9
23:25 1023 30.21 853 25.19 -4.4 24 56 -12 10.4
23:30 1023 30.21 853 25.19 -4.6 23.7 60 -11.2 11.8
23:35 1023 30.21 853 25.19 -4.5 24 54 -12.4 9.8
23:40 1023 30.21 853 25.19 -4.6 23.8 56 -12.1 10.3
23:45 1023 30.21 853 25.19 -5.7 21.7 59 -12.4 9.7
23:50 1024 30.24 853 25.19 -6 21.1 59 -12.8 9
23:55 1023 30.21 853 25.19 -5.8 21.5 59 -12.7 9.2
24:00 1023 30.21 853 25.19 -5.4 22.2 58 -12.5 9.5